Toyama Airport, Japan

9:41 PM JST on September 01, 2015 (GMT +0900)
Toyama | | Change Station
CLOSE
Current Station
Airport
Location: Toyama Airport,
Elevation: 89 ft
Nearby Weather Stations

Elev 89 ft 36.65 °N, 137.19 °E | Updated 41 minutes ago

Light Rain Showers
Light Showers Rain
73 °F
Feels Like 73 °F
N
2
Wind Variable Wind from Variable

Today
High -- | Low -- °F
--% Chance of Precip.
Yesterday
High -- | Low -- °F
Precip. -- in
5:21 AM 6:20 PM
Waning Gibbous, 89% visible
Pressure 29.80 in
Visibility 6.2 miles
Clouds Few 300 ft
Scattered Clouds 1000 ft
Mostly Cloudy 3000 ft
Dew Point 72 °F
Humidity 94%
Rainfall 0.00 in
Snow Depth Not available.
UV 0 out of 12
Pollen Not available.
Air Quality Not available.
Flu Activity Not available.
METAR RJNT 011200Z VRB02KT 9999 -SHRA FEW003 SCT010 BKN030 23/22 Q1009
Pressure 29.80 in
Visibility 6.2 miles
Clouds Few 300 ft
Scattered Clouds 1000 ft
Mostly Cloudy 3000 ft
Dew Point 72 °F
Humidity 94%
Rainfall 0.00 in
Snow Depth Not available.
UV 0 out of 12
Pollen Not available.
Air Quality Not available.
Flu Activity Not available.
METAR RJNT 011200Z VRB02KT 9999 -SHRA FEW003 SCT010 BKN030 23/22 Q1009

10-Day Weather Forecast

×

Almanac

Astronomy

Sep. 01, 2015 Rise Set
Actual Time
Civil Twilight
Nautical Twilight
Astronomical Twilight
Moon
Length of Visible Light
Length of Day
Tomorrow will be .
, % of the Moon is Illuminated

Today's Extremes

Country Highs Country Lows

Community

WunderPhotos

Upload Photos

1,851,510 photos uploaded!

WunderBlogs® & News

Nearby

Air Quality

  Air Quality AQ Index Pollutant
Not available.

Snow Depth

Station Depth Elevation

Earthquake Activity

City Distance Mag. Time & Date
Minimum magnitude displayed is 2.5.

Coastal Water Temperatures

Place Temperature

Stations

Nearby Weather Stations

Station Location Temp. Windchill Dew Point Humidity Wind Precip. Elev Updated Type